Time;durP1;ratioP1;P1;durP2;ratioP2;P2;SDS_P1;SDS_P2;PMS_P1;PMS_P2;Temp;Humidity;BMP_temperature;BMP_pressure;BME280_temperature;BME280_humidity;BME280_pressure;Samples;Min_cycle;Max_cycle;Signal;HPM_P1;HPM_P2
2021/09/14 00:02:00;;;;;;;9.40;7.97;;;17.30;77.90;;;;;;4933376;29;20457;-43
2021/09/14 00:04:27;;;;;;;7.87;7.17;;;17.30;77.90;;;;;;4951057;28;20451;-43
2021/09/14 00:06:54;;;;;;;8.33;7.53;;;17.20;78.00;;;;;;4949427;28;20945;-42
2021/09/14 00:09:21;;;;;;;8.83;7.40;;;17.30;78.00;;;;;;4948979;28;20470;-42
2021/09/14 00:11:48;;;;;;;8.90;8.00;;;17.30;77.80;;;;;;4951047;28;20976;-42
2021/09/14 00:14:14;;;;;;;9.87;8.07;;;17.20;78.00;;;;;;4948870;28;20467;-42
2021/09/14 00:16:41;;;;;;;10.70;7.70;;;17.20;78.10;;;;;;4947091;28;20456;-42
2021/09/14 00:19:08;;;;;;;7.87;7.17;;;17.20;78.10;;;;;;4945649;28;20455;-42
2021/09/14 00:21:34;;;;;;;9.00;8.20;;;17.10;78.10;;;;;;4965378;28;20463;-42
2021/09/14 00:24:01;;;;;;;8.60;7.73;;;17.10;78.10;;;;;;4950029;28;20874;-43
2021/09/14 00:26:28;;;;;;;12.60;7.50;;;17.10;78.20;;;;;;4946467;28;20464;-43
2021/09/14 00:28:55;;;;;;;8.73;7.83;;;17.10;78.20;;;;;;4948501;28;20474;-42
2021/09/14 00:31:21;;;;;;;8.70;7.83;;;17.10;78.30;;;;;;4951233;28;20995;-42
2021/09/14 00:33:48;;;;;;;8.73;7.83;;;17.10;78.20;;;;;;4948261;28;20487;-43
2021/09/14 00:36:15;;;;;;;10.07;8.10;;;17.10;78.30;;;;;;4933242;29;20459;-43
2021/09/14 00:38:42;;;;;;;9.90;8.10;;;17.10;78.30;;;;;;4948871;28;20451;-43
2021/09/14 00:41:09;;;;;;;8.70;6.90;;;17.00;78.50;;;;;;4948459;28;20481;-43
2021/09/14 00:43:36;;;;;;;8.50;7.60;;;17.00;78.60;;;;;;4949636;28;20451;-43
2021/09/14 00:46:03;;;;;;;9.20;8.30;;;17.00;78.80;;;;;;4947247;28;20983;-42
2021/09/14 00:48:30;;;;;;;9.43;8.53;;;17.00;78.80;;;;;;4950893;28;20454;-42
2021/09/14 00:50:56;;;;;;;8.53;7.73;;;17.00;78.70;;;;;;4949618;28;20486;-42
2021/09/14 00:53:26;;;;;;;7.40;6.70;;;17.00;78.80;;;;;;4946981;28;20448;-42
2021/09/14 00:55:56;;;;;;;8.53;7.43;;;16.90;78.90;;;;;;4949993;28;20470;-43
2021/09/14 00:58:24;;;;;;;8.20;7.23;;;16.90;78.90;;;;;;4948233;28;20446;-42
2021/09/14 01:00:53;;;;;;;8.83;7.87;;;16.90;79.00;;;;;;4942808;29;20440;-42
2021/09/14 01:03:20;;;;;;;8.07;7.27;;;16.90;79.00;;;;;;4949894;28;20455;-42
2021/09/14 01:05:47;;;;;;;11.93;7.57;;;16.90;79.10;;;;;;4948280;28;20478;-42
2021/09/14 01:08:13;;;;;;;8.53;7.63;;;16.90;79.00;;;;;;4949797;28;20491;-42
2021/09/14 01:10:41;;;;;;;7.97;7.27;;;16.90;79.10;;;;;;4948884;28;20530;-42
2021/09/14 01:13:09;;;;;;;9.97;8.00;;;16.80;79.10;;;;;;4943582;28;20491;-43
2021/09/14 01:15:36;;;;;;;9.27;7.87;;;16.80;79.20;;;;;;4949003;28;20459;-43
2021/09/14 01:18:04;;;;;;;10.63;9.00;;;16.80;79.30;;;;;;4950839;28;20459;-43
2021/09/14 01:20:31;;;;;;;10.23;7.97;;;16.70;79.30;;;;;;4948962;28;20447;-43
2021/09/14 01:22:57;;;;;;;9.53;8.57;;;16.70;79.30;;;;;;4947190;29;20973;-43
2021/09/14 01:25:25;;;;;;;10.23;8.60;;;16.70;79.40;;;;;;4944001;28;20474;-43
2021/09/14 01:27:52;;;;;;;9.07;8.17;;;16.70;79.40;;;;;;4966676;28;20459;-43
2021/09/14 01:30:21;;;;;;;12.03;8.87;;;16.70;79.40;;;;;;4930295;29;20497;-43
2021/09/14 01:32:51;;;;;;;8.77;7.87;;;16.70;79.40;;;;;;4950947;29;20533;-43
2021/09/14 01:35:25;;;;;;;9.23;8.13;;;16.60;79.40;;;;;;4948936;28;20862;-43
2021/09/14 01:37:52;;;;;;;8.27;7.20;;;16.60;79.30;;;;;;4949371;28;20462;-43
2021/09/14 01:40:19;;;;;;;8.47;7.57;;;16.60;79.30;;;;;;4947468;28;20455;-43
2021/09/14 01:42:47;;;;;;;8.83;7.93;;;16.60;79.40;;;;;;4949815;28;20450;-43
2021/09/14 01:45:14;;;;;;;8.43;7.60;;;16.60;79.50;;;;;;4944600;28;20536;-42
2021/09/14 01:47:42;;;;;;;9.40;8.33;;;16.50;79.50;;;;;;4947843;29;20455;-42
2021/09/14 01:50:12;;;;;;;10.73;8.73;;;16.50;79.50;;;;;;4946456;29;20491;-43
2021/09/14 01:52:39;;;;;;;9.00;8.20;;;16.50;79.50;;;;;;4949254;28;20447;-43
2021/09/14 01:55:08;;;;;;;9.00;7.73;;;16.50;79.50;;;;;;4933156;29;20539;-43
2021/09/14 01:57:38;;;;;;;8.33;7.53;;;16.50;79.60;;;;;;4946793;29;20448;-43
2021/09/14 02:00:09;;;;;;;8.33;7.53;;;16.50;79.60;;;;;;4947886;29;20452;-43
2021/09/14 02:41:20;;;;;;;8.53;7.63;;;16.20;79.70;;;;;;4956371;28;20469;-47
2021/09/14 02:59:56;;;;;;;8.00;7.17;;;16.10;80.00;;;;;;4952813;28;20439;-46
2021/09/14 03:02:23;;;;;;;8.13;7.43;;;16.10;80.00;;;;;;4952942;29;20845;-46
2021/09/14 03:04:50;;;;;;;8.13;7.00;;;16.10;80.10;;;;;;4952044;29;20963;-46
2021/09/14 03:07:17;;;;;;;8.13;7.33;;;16.10;80.00;;;;;;4954449;28;20539;-45
2021/09/14 03:09:43;;;;;;;9.70;7.60;;;16.00;80.10;;;;;;4953552;28;21020;-46
2021/09/14 03:12:10;;;;;;;9.30;8.40;;;16.00;80.20;;;;;;4953469;28;20494;-46
2021/09/14 03:14:38;;;;;;;9.53;7.10;;;16.00;80.10;;;;;;4955254;29;20527;-46
2021/09/14 03:17:05;;;;;;;10.77;7.53;;;16.00;80.10;;;;;;4947436;28;20451;-46
2021/09/14 03:19:32;;;;;;;9.50;8.03;;;16.00;80.20;;;;;;4953609;28;20451;-46
2021/09/14 03:21:58;;;;;;;8.80;7.90;;;15.90;80.20;;;;;;4957334;28;20489;-46
2021/09/14 03:24:25;;;;;;;11.43;7.60;;;15.90;80.20;;;;;;4956144;28;20459;-46
2021/09/14 03:26:52;;;;;;;10.70;8.27;;;15.90;80.30;;;;;;4953118;28;20465;-46
2021/09/14 03:29:21;;;;;;;9.17;7.07;;;15.90;80.20;;;;;;4952483;28;21181;-46
2021/09/14 03:31:48;;;;;;;8.87;7.97;;;15.90;79.90;;;;;;4955632;28;20493;-46
2021/09/14 03:34:14;;;;;;;9.07;8.00;;;15.90;79.80;;;;;;4955540;28;20829;-45
2021/09/14 03:36:41;;;;;;;9.07;7.80;;;15.90;79.80;;;;;;4951773;28;20546;-45
2021/09/14 03:39:08;;;;;;;9.63;8.63;;;15.90;79.90;;;;;;4957571;28;20513;-46
2021/09/14 03:41:35;;;;;;;9.17;7.53;;;15.80;80.00;;;;;;4951218;28;20451;-45
2021/09/14 03:44:01;;;;;;;8.80;7.90;;;15.80;80.00;;;;;;4954446;28;20447;-45
2021/09/14 03:46:28;;;;;;;8.20;7.37;;;15.80;80.20;;;;;;4956562;28;20473;-45
2021/09/14 03:48:55;;;;;;;8.80;8.00;;;15.80;80.20;;;;;;4953426;28;20452;-45
2021/09/14 03:51:22;;;;;;;9.63;8.20;;;15.80;80.30;;;;;;4946957;28;20502;-45
2021/09/14 03:53:49;;;;;;;8.53;7.73;;;15.80;80.40;;;;;;4954526;28;20459;-46
2021/09/14 03:56:15;;;;;;;9.57;8.13;;;15.80;80.40;;;;;;4953001;29;20458;-46
2021/09/14 03:58:42;;;;;;;8.53;7.30;;;15.80;80.50;;;;;;4951109;29;20466;-46
2021/09/14 04:01:09;;;;;;;8.43;7.63;;;15.80;80.50;;;;;;4952699;28;20457;-46
2021/09/14 04:03:39;;;;;;;9.77;8.03;;;15.70;80.50;;;;;;4956002;28;20543;-46
2021/09/14 04:08:52;;;;;;;9.80;8.60;;;15.70;80.50;;;;;;4952753;28;20462;-45
2021/09/14 04:11:21;;;;;;;10.70;9.70;;;15.70;80.60;;;;;;4954395;28;20488;-46
2021/09/14 04:13:52;;;;;;;9.33;8.40;;;15.70;80.50;;;;;;4953810;28;20482;-45
2021/09/14 04:16:19;;;;;;;9.77;8.80;;;15.70;80.40;;;;;;4954613;28;20833;-45
2021/09/14 04:18:46;;;;;;;10.13;9.13;;;15.70;80.50;;;;;;4952603;28;20466;-45
2021/09/14 04:21:14;;;;;;;11.37;8.20;;;15.60;80.70;;;;;;4946100;28;20467;-45
2021/09/14 04:23:40;;;;;;;8.93;8.03;;;15.60;80.70;;;;;;4951128;28;20450;-46
2021/09/14 04:26:07;;;;;;;10.03;8.83;;;15.70;80.80;;;;;;4950989;29;20447;-45
2021/09/14 04:28:34;;;;;;;10.30;9.27;;;15.60;80.90;;;;;;4968301;28;20456;-45
2021/09/14 04:31:01;;;;;;;8.87;8.07;;;15.60;81.00;;;;;;4951004;29;20579;-45
2021/09/14 04:33:28;;;;;;;8.90;7.77;;;15.60;81.00;;;;;;4956339;28;20459;-45
2021/09/14 04:35:55;;;;;;;8.40;7.60;;;15.60;81.20;;;;;;4949081;28;20490;-46
2021/09/14 04:38:22;;;;;;;7.60;6.90;;;15.60;81.10;;;;;;4947942;28;20822;-46
2021/09/14 04:40:49;;;;;;;12.33;7.60;;;15.60;81.10;;;;;;4951593;28;20463;-46
2021/09/14 04:43:16;;;;;;;10.83;8.40;;;15.60;81.20;;;;;;4952765;28;20447;-45
2021/09/14 04:45:42;;;;;;;10.13;7.90;;;15.60;81.30;;;;;;4953461;28;20463;-45
2021/09/14 04:48:10;;;;;;;10.07;8.27;;;15.50;81.30;;;;;;4953320;28;20450;-45
2021/09/14 04:50:37;;;;;;;9.17;8.17;;;15.60;81.40;;;;;;4951749;28;20483;-45
2021/09/14 04:53:04;;;;;;;8.00;7.20;;;15.50;81.40;;;;;;4952453;28;20474;-46
2021/09/14 04:55:31;;;;;;;8.23;7.40;;;15.50;81.30;;;;;;4951187;28;20772;-46
2021/09/14 04:57:57;;;;;;;8.97;8.07;;;15.50;81.40;;;;;;4952888;28;20443;-45
2021/09/14 05:00:25;;;;;;;8.80;8.00;;;15.50;81.40;;;;;;4948551;28;20447;-46
2021/09/14 05:02:53;;;;;;;9.47;7.67;;;15.50;81.50;;;;;;4947722;29;20455;-46
2021/09/14 05:05:20;;;;;;;9.33;8.43;;;15.40;81.70;;;;;;4951582;28;20532;-45
2021/09/14 05:07:47;;;;;;;14.80;9.60;;;15.40;81.70;;;;;;4949521;29;20460;-46
2021/09/14 05:10:14;;;;;;;8.90;8.10;;;15.50;82.00;;;;;;4949566;28;20815;-45
2021/09/14 05:12:40;;;;;;;9.63;8.63;;;15.50;82.20;;;;;;4954626;28;20628;-45
2021/09/14 05:15:08;;;;;;;9.90;8.90;;;15.50;82.50;;;;;;4950894;28;20459;-45
2021/09/14 05:17:35;;;;;;;10.60;9.50;;;15.50;82.60;;;;;;4953642;28;20447;-45
2021/09/14 05:20:05;;;;;;;8.87;8.07;;;15.50;82.70;;;;;;4954182;28;20821;-46
2021/09/14 05:22:34;;;;;;;11.07;8.97;;;15.60;82.90;;;;;;4933349;29;20471;-46
2021/09/14 05:25:03;;;;;;;11.47;8.57;;;15.60;83.00;;;;;;4952464;28;20451;-46
2021/09/14 05:27:29;;;;;;;9.07;8.17;;;15.60;83.10;;;;;;4951226;28;20444;-46
2021/09/14 05:29:56;;;;;;;9.47;8.47;;;15.60;83.20;;;;;;4949800;28;20467;-46
2021/09/14 05:32:23;;;;;;;8.27;7.57;;;15.70;83.20;;;;;;4948224;28;21014;-46
2021/09/14 05:34:50;;;;;;;9.23;8.13;;;15.70;83.10;;;;;;4948130;28;20541;-45
2021/09/14 05:37:18;;;;;;;10.13;9.13;;;15.70;83.10;;;;;;4952664;28;20466;-46
2021/09/14 05:39:45;;;;;;;11.00;8.57;;;15.80;83.20;;;;;;4956340;28;21036;-46
2021/09/14 05:42:12;;;;;;;11.90;9.63;;;15.80;83.20;;;;;;4951325;28;20953;-46
2021/09/14 05:44:39;;;;;;;10.50;9.50;;;15.80;83.20;;;;;;4950027;29;20458;-46
2021/09/14 05:47:06;;;;;;;8.70;7.77;;;15.80;83.20;;;;;;4951288;28;20814;-46
2021/09/14 05:49:34;;;;;;;11.80;8.53;;;15.90;83.20;;;;;;4950543;28;20459;-46
2021/09/14 05:52:01;;;;;;;14.40;9.17;;;15.90;83.00;;;;;;4955522;28;20491;-46
2021/09/14 05:54:28;;;;;;;11.70;9.60;;;16.00;82.90;;;;;;4953311;28;20812;-46
2021/09/14 05:56:55;;;;;;;11.73;9.40;;;16.00;82.80;;;;;;4946578;28;20453;-45
2021/09/14 05:59:22;;;;;;;11.13;9.10;;;16.00;82.80;;;;;;4949271;28;20464;-45
2021/09/14 06:01:48;;;;;;;9.83;8.93;;;16.00;82.70;;;;;;4951431;28;20989;-46
2021/09/14 06:04:18;;;;;;;9.33;8.43;;;16.00;82.60;;;;;;4952480;28;20506;-46
2021/09/14 06:06:44;;;;;;;9.53;8.17;;;16.10;82.60;;;;;;4952971;28;21144;-45
2021/09/14 06:09:11;;;;;;;11.90;9.00;;;16.10;82.50;;;;;;4948568;28;20464;-46
2021/09/14 06:11:38;;;;;;;11.10;8.30;;;16.10;82.40;;;;;;4950448;28;20857;-46
2021/09/14 06:14:04;;;;;;;10.50;9.40;;;16.20;82.20;;;;;;4949077;28;20479;-46
2021/09/14 06:16:31;;;;;;;10.37;9.20;;;16.30;82.10;;;;;;4951697;28;20485;-46
2021/09/14 06:18:58;;;;;;;9.37;8.40;;;16.30;82.10;;;;;;4952792;28;20831;-46
2021/09/14 06:21:25;;;;;;;10.10;8.83;;;16.30;82.20;;;;;;4946345;28;20451;-46
2021/09/14 06:23:51;;;;;;;9.90;8.27;;;16.30;82.30;;;;;;4948803;28;20458;-46
2021/09/14 06:26:20;;;;;;;11.33;8.33;;;16.40;82.30;;;;;;4951083;28;20455;-46
2021/09/14 06:28:47;;;;;;;10.37;9.33;;;16.40;82.30;;;;;;4953246;28;20496;-46
2021/09/14 06:31:14;;;;;;;10.23;8.70;;;16.50;82.40;;;;;;4948506;29;20816;-45
2021/09/14 06:33:41;;;;;;;10.00;8.90;;;16.50;82.40;;;;;;4951721;28;20469;-46
2021/09/14 06:36:07;;;;;;;9.13;8.20;;;16.50;82.40;;;;;;4952392;28;20442;-46
2021/09/14 06:38:37;;;;;;;11.23;7.97;;;16.60;82.40;;;;;;4952650;29;20462;-46
2021/09/14 06:41:05;;;;;;;9.73;8.67;;;16.60;82.40;;;;;;4949608;28;20440;-46
2021/09/14 06:43:32;;;;;;;14.90;10.27;;;16.70;82.30;;;;;;4947151;28;20953;-46
2021/09/14 06:45:58;;;;;;;8.97;8.17;;;16.70;82.20;;;;;;4950381;28;20482;-46
2021/09/14 06:48:28;;;;;;;11.47;9.23;;;16.80;82.10;;;;;;4952836;28;20471;-46
2021/09/14 06:50:55;;;;;;;10.40;9.30;;;16.80;82.00;;;;;;4946206;29;20458;-46
2021/09/14 06:53:26;;;;;;;11.13;9.33;;;16.90;82.00;;;;;;4948220;29;21008;-46
2021/09/14 06:55:53;;;;;;;11.27;9.10;;;16.90;82.00;;;;;;4955835;28;20459;-46
2021/09/14 06:58:19;;;;;;;12.50;8.73;;;17.10;81.90;;;;;;4949403;29;20891;-46
2021/09/14 07:00:46;;;;;;;14.23;9.47;;;17.20;81.50;;;;;;4945535;28;20449;-46
2021/09/14 07:03:13;;;;;;;11.20;8.17;;;17.20;81.40;;;;;;4951895;28;20451;-46
2021/09/14 07:05:40;;;;;;;11.87;8.40;;;17.30;81.10;;;;;;4946028;28;20464;-46
2021/09/14 07:08:06;;;;;;;11.70;7.97;;;17.40;80.80;;;;;;4947191;28;20455;-46
2021/09/14 07:10:40;;;;;;;10.90;8.60;;;17.50;80.70;;;;;;4956262;28;20479;-46
2021/09/14 07:13:07;;;;;;;11.37;8.67;;;17.60;80.50;;;;;;4947839;28;20491;-46
2021/09/14 07:15:34;;;;;;;14.20;8.23;;;17.70;80.50;;;;;;4948928;28;20456;-46
2021/09/14 07:18:03;;;;;;;10.20;8.13;;;17.80;80.10;;;;;;4951283;28;20483;-46
2021/09/14 07:20:31;;;;;;;14.27;9.03;;;17.90;79.90;;;;;;4949379;28;20459;-46
2021/09/14 07:22:58;;;;;;;10.20;8.23;;;18.00;79.40;;;;;;4953685;28;20447;-46
2021/09/14 07:25:28;;;;;;;11.10;8.90;;;18.10;79.20;;;;;;4947432;29;20451;-45
2021/09/14 07:27:54;;;;;;;14.67;8.37;;;18.20;78.90;;;;;;4953645;28;20458;-46
2021/09/14 07:30:21;;;;;;;13.13;8.03;;;18.30;78.40;;;;;;4948534;28;20458;-45
2021/09/14 07:32:54;;;;;;;11.33;8.57;;;18.40;78.00;;;;;;4956781;28;20475;-45
2021/09/14 07:35:22;;;;;;;10.90;8.40;;;18.50;77.60;;;;;;4954161;28;21005;-45
2021/09/14 07:37:49;;;;;;;10.03;8.30;;;18.60;77.10;;;;;;4952493;28;20451;-46
2021/09/14 07:40:16;;;;;;;8.40;7.53;;;18.70;77.20;;;;;;4948409;28;20941;-46
2021/09/14 07:42:43;;;;;;;10.97;7.80;;;18.80;77.20;;;;;;4954491;28;20463;-46
2021/09/14 07:45:10;;;;;;;10.20;7.30;;;19.00;76.90;;;;;;4949325;28;20483;-46
2021/09/14 07:47:37;;;;;;;10.30;8.07;;;19.20;76.90;;;;;;4951232;28;20451;-45
2021/09/14 07:50:04;;;;;;;7.80;7.00;;;19.30;76.50;;;;;;4954668;28;20506;-45
2021/09/14 07:52:31;;;;;;;8.60;7.70;;;19.40;75.40;;;;;;4952059;28;20517;-45
2021/09/14 07:54:58;;;;;;;7.93;7.07;;;19.60;74.40;;;;;;4955766;28;20473;-46
2021/09/14 07:57:25;;;;;;;8.83;7.60;;;19.70;73.80;;;;;;4955452;28;20443;-45
2021/09/14 07:59:51;;;;;;;9.63;8.30;;;19.80;73.40;;;;;;4953730;28;20447;-46
2021/09/14 08:02:18;;;;;;;11.23;7.60;;;19.80;73.20;;;;;;4951479;28;20448;-45
2021/09/14 08:04:45;;;;;;;8.87;7.17;;;19.90;73.10;;;;;;4954528;28;20476;-46
2021/09/14 08:07:11;;;;;;;7.17;6.43;;;20.00;73.30;;;;;;4950774;28;20443;-46
2021/09/14 08:09:40;;;;;;;8.00;7.00;;;20.10;73.20;;;;;;4951707;28;20832;-46
2021/09/14 08:12:07;;;;;;;14.40;7.20;;;20.20;72.40;;;;;;4947554;28;20506;-46
2021/09/14 08:14:34;;;;;;;8.60;7.00;;;20.30;71.70;;;;;;4954113;28;20475;-45
2021/09/14 08:17:01;;;;;;;7.93;7.20;;;20.40;71.40;;;;;;4952745;28;20475;-46
2021/09/14 08:19:28;;;;;;;8.37;6.97;;;20.50;70.70;;;;;;4955018;28;20478;-46
2021/09/14 08:21:55;;;;;;;8.80;6.73;;;20.70;70.90;;;;;;4953480;28;20455;-46
2021/09/14 08:24:22;;;;;;;7.83;7.03;;;20.80;70.50;;;;;;4952024;28;20875;-46
2021/09/14 08:26:48;;;;;;;6.90;6.20;;;21.00;70.20;;;;;;4954152;28;20467;-46
2021/09/14 08:29:15;;;;;;;7.50;6.70;;;21.10;69.50;;;;;;4950803;29;20457;-46
2021/09/14 08:31:42;;;;;;;7.60;6.90;;;21.20;69.00;;;;;;4952596;28;20957;-46
2021/09/14 08:34:09;;;;;;;11.20;7.90;;;21.30;68.70;;;;;;4956325;28;20828;-46
2021/09/14 08:36:36;;;;;;;8.07;7.27;;;21.30;68.40;;;;;;4950909;28;20451;-46
2021/09/14 08:39:03;;;;;;;8.10;7.30;;;21.30;68.30;;;;;;4956236;28;20880;-46
2021/09/14 08:41:30;;;;;;;9.20;7.40;;;21.40;68.50;;;;;;4951594;28;20458;-46
2021/09/14 08:43:58;;;;;;;9.60;7.77;;;21.40;68.40;;;;;;4951292;28;20456;-46
2021/09/14 08:46:25;;;;;;;8.10;6.87;;;21.50;68.20;;;;;;4953997;28;20456;-46
2021/09/14 08:48:52;;;;;;;12.03;8.10;;;21.60;68.00;;;;;;4953568;28;20459;-46
2021/09/14 08:51:19;;;;;;;8.40;7.50;;;21.60;68.00;;;;;;4948604;28;20462;-46
2021/09/14 08:53:46;;;;;;;12.00;8.10;;;21.70;67.90;;;;;;4956143;28;21040;-46
2021/09/14 08:56:13;;;;;;;9.77;7.10;;;21.80;67.60;;;;;;4955366;28;20450;-46
2021/09/14 08:58:40;;;;;;;8.10;7.17;;;21.90;67.30;;;;;;4949476;28;20808;-46
2021/09/14 09:01:14;;;;;;;12.10;7.83;;;21.90;67.30;;;;;;4955703;28;20454;-46
2021/09/14 09:03:41;;;;;;;9.13;8.20;;;22.00;67.50;;;;;;4952786;28;20447;-46
2021/09/14 09:06:08;;;;;;;7.63;6.93;;;22.00;67.10;;;;;;4953721;29;20451;-46
2021/09/14 09:08:35;;;;;;;11.10;7.50;;;22.00;67.00;;;;;;4949257;28;21042;-46
2021/09/14 09:11:10;;;;;;;8.30;7.50;;;22.00;66.70;;;;;;4954972;28;20494;-46
2021/09/14 09:13:43;;;;;;;8.93;6.90;;;22.20;66.80;;;;;;4949174;28;20481;-46
2021/09/14 09:16:21;;;;;;;8.30;7.47;;;22.10;67.10;;;;;;4947038;28;20471;-46
2021/09/14 09:18:53;;;;;;;8.67;7.67;;;22.10;66.80;;;;;;4950422;28;20769;-46
2021/09/14 09:21:39;;;;;;;11.73;7.60;;;22.20;66.50;;;;;;4949623;28;20482;-46
2021/09/14 09:24:12;;;;;;;8.93;6.73;;;22.40;66.40;;;;;;4951566;28;20873;-46
2021/09/14 09:26:42;;;;;;;8.13;7.33;;;22.60;66.00;;;;;;4954899;28;20470;-46
2021/09/14 09:29:10;;;;;;;6.70;5.93;;;22.80;65.40;;;;;;4950522;28;20452;-46
2021/09/14 09:31:43;;;;;;;7.10;6.40;;;22.90;65.20;;;;;;4948746;28;20454;-46
2021/09/14 09:34:11;;;;;;;7.90;6.43;;;23.00;64.60;;;;;;4951676;28;20487;-46
2021/09/14 09:36:42;;;;;;;10.30;7.67;;;23.00;64.60;;;;;;4953201;28;20558;-46
2021/09/14 09:39:11;;;;;;;8.90;6.80;;;23.00;64.60;;;;;;4951555;28;20459;-46
2021/09/14 09:41:48;;;;;;;8.60;7.17;;;23.00;64.60;;;;;;4949503;28;20454;-46
2021/09/14 09:44:15;;;;;;;8.67;7.87;;;23.00;64.30;;;;;;4953389;28;20458;-46
2021/09/14 09:46:42;;;;;;;11.07;7.60;;;23.00;64.40;;;;;;4954437;28;20459;-46
2021/09/14 09:49:09;;;;;;;8.20;7.40;;;23.00;64.90;;;;;;4951326;28;20543;-46
2021/09/14 09:51:38;;;;;;;8.30;7.27;;;23.00;64.60;;;;;;4951087;28;20978;-46
2021/09/14 09:54:05;;;;;;;8.80;7.40;;;23.00;65.00;;;;;;4951677;28;20491;-46
2021/09/14 09:56:33;;;;;;;11.70;7.57;;;23.10;65.00;;;;;;4950517;28;20469;-46
2021/09/14 09:59:04;;;;;;;6.77;6.07;;;23.10;65.10;;;;;;4950927;28;20470;-46
2021/09/14 10:01:33;;;;;;;11.57;7.50;;;23.20;64.90;;;;;;4953572;28;20458;-46
2021/09/14 10:04:17;;;;;;;7.77;7.00;;;23.30;64.90;;;;;;4947833;29;20461;-46
2021/09/14 10:06:47;;;;;;;7.90;7.10;;;23.50;64.20;;;;;;4950078;28;20478;-46
2021/09/14 10:09:14;;;;;;;9.10;7.27;;;23.60;63.30;;;;;;4948982;28;20461;-46
2021/09/14 10:11:41;;;;;;;10.50;7.70;;;23.70;62.70;;;;;;4947455;28;20463;-46
2021/09/14 10:14:09;;;;;;;8.10;7.30;;;24.00;62.80;;;;;;4951840;28;20491;-46
2021/09/14 10:16:48;;;;;;;9.60;6.90;;;24.20;61.90;;;;;;4951331;28;20464;-46
2021/09/14 10:19:28;;;;;;;7.40;6.70;;;24.30;61.60;;;;;;4951284;28;20438;-46
2021/09/14 10:22:03;;;;;;;10.27;6.77;;;24.50;61.10;;;;;;4949420;28;20464;-46
2021/09/14 10:24:31;;;;;;;12.20;7.33;;;25.00;60.20;;;;;;4949332;28;20454;-47
2021/09/14 10:27:14;;;;;;;7.50;6.80;;;25.50;59.40;;;;;;4950294;28;20824;-46
2021/09/14 10:29:41;;;;;;;9.90;7.07;;;25.90;57.80;;;;;;4949350;28;20450;-47
2021/09/14 10:32:11;;;;;;;6.90;6.07;;;26.30;56.60;;;;;;4951989;28;20461;-46
2021/09/14 10:34:57;;;;;;;7.10;6.50;;;26.70;56.00;;;;;;4946072;28;20455;-46
2021/09/14 10:37:31;;;;;;;7.93;7.17;;;27.20;55.50;;;;;;4948629;28;20477;-45
2021/09/14 10:40:09;;;;;;;7.63;6.30;;;27.50;54.50;;;;;;4951012;29;20455;-46
2021/09/14 10:42:43;;;;;;;7.50;6.70;;;27.70;53.60;;;;;;4952092;28;20818;-46
2021/09/14 10:45:13;;;;;;;11.70;7.03;;;27.90;53.30;;;;;;4948639;28;20248;-46
2021/09/14 10:47:50;;;;;;;9.90;6.33;;;28.10;52.50;;;;;;4950950;28;20245;-45
2021/09/14 10:50:29;;;;;;;7.20;6.30;;;28.20;52.30;;;;;;4945769;28;20202;-45
2021/09/14 10:53:01;;;;;;;6.47;5.80;;;28.40;52.20;;;;;;4947336;28;20234;-46
2021/09/14 10:55:30;;;;;;;6.20;5.57;;;28.40;52.30;;;;;;4964775;28;20199;-46
2021/09/14 10:58:01;;;;;;;9.30;7.00;;;28.30;52.40;;;;;;4953908;28;20203;-46
2021/09/14 11:00:33;;;;;;;10.27;6.53;;;28.00;52.50;;;;;;4953631;28;20211;-46
2021/09/14 11:03:03;;;;;;;8.17;6.00;;;27.80;53.10;;;;;;4951975;28;20215;-46
2021/09/14 11:05:35;;;;;;;10.50;6.10;;;27.60;54.00;;;;;;4951559;28;20689;-46
2021/09/14 11:08:04;;;;;;;6.30;5.80;;;27.50;54.40;;;;;;4951099;29;20477;-46
2021/09/14 11:10:39;;;;;;;6.60;5.67;;;27.40;54.40;;;;;;4949845;28;20274;-46
2021/09/14 11:13:07;;;;;;;6.73;6.13;;;27.30;54.70;;;;;;4955711;28;20234;-46
2021/09/14 11:15:34;;;;;;;6.80;6.20;;;27.30;55.00;;;;;;4951089;28;20219;-46
2021/09/14 11:18:01;;;;;;;7.40;5.53;;;27.20;55.10;;;;;;4954027;28;20238;-46
2021/09/14 11:20:30;;;;;;;10.73;6.07;;;27.00;54.90;;;;;;4947795;28;20297;-46
2021/09/14 11:22:59;;;;;;;7.10;6.40;;;26.90;55.60;;;;;;4953662;28;20447;-46
2021/09/14 11:25:28;;;;;;;7.53;6.73;;;26.80;55.50;;;;;;4953326;28;20977;-47
2021/09/14 11:28:00;;;;;;;8.07;7.30;;;26.70;55.90;;;;;;4955702;28;20976;-45
2021/09/14 11:30:29;;;;;;;5.87;5.37;;;26.60;56.10;;;;;;4951967;28;20966;-46
2021/09/14 11:32:56;;;;;;;8.73;6.63;;;26.40;56.50;;;;;;4949632;28;20492;-46
2021/09/14 11:35:23;;;;;;;6.20;5.70;;;26.30;57.20;;;;;;4956370;28;20890;-46
2021/09/14 11:38:01;;;;;;;6.70;6.03;;;26.20;57.90;;;;;;4954338;28;20450;-46
2021/09/14 11:40:29;;;;;;;8.40;5.57;;;26.10;58.10;;;;;;4949925;28;20442;-48
2021/09/14 11:42:57;;;;;;;6.40;5.80;;;25.90;58.30;;;;;;4953220;28;20538;-46
2021/09/14 11:45:26;;;;;;;6.50;5.00;;;25.70;58.70;;;;;;4954026;28;20469;-47
2021/09/14 11:47:57;;;;;;;5.97;5.27;;;25.60;59.10;;;;;;4954348;28;20454;-46
2021/09/14 11:50:37;;;;;;;9.50;6.60;;;25.50;59.80;;;;;;4952396;28;20460;-46
2021/09/14 11:53:10;;;;;;;7.20;6.00;;;25.40;60.20;;;;;;4954079;28;20490;-46
2021/09/14 11:55:43;;;;;;;7.97;6.30;;;25.30;60.50;;;;;;4950434;28;20551;-46
2021/09/14 11:58:10;;;;;;;7.70;5.50;;;25.30;60.40;;;;;;4950247;28;20469;-47
2021/09/14 12:00:39;;;;;;;6.67;5.50;;;25.20;60.70;;;;;;4952084;28;20450;-46
2021/09/14 12:03:07;;;;;;;6.67;6.10;;;25.20;60.70;;;;;;4954809;28;20647;-46
2021/09/14 12:05:33;;;;;;;6.77;6.17;;;25.20;60.90;;;;;;4951198;29;20458;-46
2021/09/14 12:08:09;;;;;;;5.90;5.37;;;25.20;61.00;;;;;;4953270;28;20801;-45
2021/09/14 12:10:43;;;;;;;6.63;6.00;;;25.10;60.90;;;;;;4953402;28;20505;-46
2021/09/14 12:13:16;;;;;;;8.10;6.40;;;25.10;60.90;;;;;;4952438;28;20512;-46
2021/09/14 12:15:43;;;;;;;11.00;5.73;;;25.10;61.10;;;;;;4952821;28;20461;-46
2021/09/14 12:18:14;;;;;;;6.70;5.20;;;25.00;61.30;;;;;;4951307;28;20458;-46
2021/09/14 12:20:43;;;;;;;6.63;6.00;;;25.00;61.60;;;;;;4951590;28;20550;-46
2021/09/14 12:23:12;;;;;;;11.50;5.80;;;25.00;61.90;;;;;;4953503;28;20457;-46
2021/09/14 12:25:39;;;;;;;7.70;5.90;;;24.90;62.20;;;;;;4953115;28;20469;-46
2021/09/14 12:28:06;;;;;;;7.87;6.37;;;24.90;62.60;;;;;;4953925;28;20478;-46
2021/09/14 12:30:34;;;;;;;12.83;5.70;;;24.90;62.70;;;;;;4954759;28;20461;-46
2021/09/14 12:33:01;;;;;;;6.90;6.20;;;24.90;62.70;;;;;;4967781;28;20490;-46
2021/09/14 12:35:28;;;;;;;6.50;5.47;;;25.00;62.70;;;;;;4950711;28;20481;-46
2021/09/14 12:37:54;;;;;;;8.77;5.80;;;25.00;62.70;;;;;;4954283;28;20904;-46
2021/09/14 12:40:21;;;;;;;10.87;7.53;;;25.00;62.80;;;;;;4946068;28;20965;-46
2021/09/14 12:42:48;;;;;;;6.90;6.40;;;25.00;62.80;;;;;;4953075;29;20454;-46
2021/09/14 12:45:16;;;;;;;7.30;6.70;;;25.00;62.70;;;;;;4952104;28;20451;-46
2021/09/14 12:47:43;;;;;;;9.57;6.10;;;25.00;62.70;;;;;;4951021;28;21000;-47
2021/09/14 12:50:10;;;;;;;7.93;6.70;;;25.00;62.60;;;;;;4954400;28;20468;-46
2021/09/14 12:52:37;;;;;;;6.73;6.10;;;25.10;62.50;;;;;;4955842;28;20541;-46
2021/09/14 12:55:08;;;;;;;6.67;6.03;;;25.10;62.40;;;;;;4949575;29;20561;-46
2021/09/14 12:57:38;;;;;;;6.40;5.90;;;25.10;62.60;;;;;;4946574;29;20449;-46
2021/09/14 13:00:05;;;;;;;6.80;6.20;;;25.10;62.70;;;;;;4952122;28;20833;-46
2021/09/14 13:02:32;;;;;;;8.40;6.63;;;25.10;62.70;;;;;;4936071;29;20460;-46
2021/09/14 13:04:59;;;;;;;6.53;5.93;;;25.10;62.50;;;;;;4954612;28;20522;-46
2021/09/14 13:07:26;;;;;;;8.40;6.67;;;25.20;62.40;;;;;;4948563;28;20839;-46
2021/09/14 13:09:53;;;;;;;7.47;6.77;;;25.20;62.90;;;;;;4949215;28;20446;-46
2021/09/14 13:12:22;;;;;;;9.10;6.17;;;25.20;62.90;;;;;;4954076;28;20446;-47
2021/09/14 13:17:35;;;;;;;8.00;6.47;;;25.20;62.70;;;;;;4956710;28;20488;-46
2021/09/14 13:20:01;;;;;;;6.43;5.87;;;25.20;62.50;;;;;;4953077;28;20454;-46
2021/09/14 13:22:28;;;;;;;7.67;6.97;;;25.30;62.40;;;;;;4948815;28;20470;-46
2021/09/14 13:24:56;;;;;;;6.90;6.20;;;25.30;62.50;;;;;;4946717;28;20462;-47
2021/09/14 13:27:23;;;;;;;9.40;6.30;;;25.30;62.50;;;;;;4946795;28;20443;-46
2021/09/14 13:29:49;;;;;;;5.53;5.03;;;25.30;62.50;;;;;;4955527;28;20477;-47
2021/09/14 13:32:18;;;;;;;6.77;5.93;;;25.40;62.70;;;;;;4948737;28;20469;-47
2021/09/14 13:34:46;;;;;;;7.03;6.30;;;25.40;62.60;;;;;;4953609;28;20486;-46
2021/09/14 13:37:13;;;;;;;7.00;6.30;;;25.40;62.40;;;;;;4953708;28;20445;-47
2021/09/14 13:39:40;;;;;;;5.93;5.23;;;25.40;62.40;;;;;;4948690;28;20451;-46
2021/09/14 13:42:08;;;;;;;6.37;5.80;;;25.40;62.40;;;;;;4945162;28;20450;-46
2021/09/14 13:47:07;;;;;;;6.73;5.70;;;25.40;62.70;;;;;;4949382;28;20964;-46
2021/09/14 13:49:37;;;;;;;7.17;6.10;;;25.40;62.30;;;;;;4952930;28;20776;-47
2021/09/14 13:52:04;;;;;;;8.50;6.30;;;25.40;62.30;;;;;;4947882;28;21011;-47